sensor_id;sensor_type;location;lat;lon;timestamp;P1;P2;P0
77794;PMS5003;66985;45.778;3.090;2023-02-19T00:01:46;8;8;
77794;PMS5003;66985;45.778;3.090;2023-02-19T00:04:12;7;7;
77794;PMS5003;66985;45.778;3.090;2023-02-19T00:06:37;7;7;
77794;PMS5003;66985;45.778;3.090;2023-02-19T00:09:03;9;7;
77794;PMS5003;66985;45.778;3.090;2023-02-19T00:11:29;10;8;
77794;PMS5003;66985;45.778;3.090;2023-02-19T00:13:54;9;9;
77794;PMS5003;66985;45.778;3.090;2023-02-19T00:16:19;8;8;
77794;PMS5003;66985;45.778;3.090;2023-02-19T00:18:44;12;10;
77794;PMS5003;66985;45.778;3.090;2023-02-19T00:21:10;8;8;
77794;PMS5003;66985;45.778;3.090;2023-02-19T00:23:35;10;9;
77794;PMS5003;66985;45.778;3.090;2023-02-19T00:26:01;9;8;
77794;PMS5003;66985;45.778;3.090;2023-02-19T00:28:26;9;9;
77794;PMS5003;66985;45.778;3.090;2023-02-19T00:30:52;12;8;
77794;PMS5003;66985;45.778;3.090;2023-02-19T00:33:17;9;9;
77794;PMS5003;66985;45.778;3.090;2023-02-19T00:35:43;10;10;
77794;PMS5003;66985;45.778;3.090;2023-02-19T00:38:08;12;11;
77794;PMS5003;66985;45.778;3.090;2023-02-19T00:40:33;9;9;
77794;PMS5003;66985;45.778;3.090;2023-02-19T00:42:59;11;10;
77794;PMS5003;66985;45.778;3.090;2023-02-19T00:45:24;10;10;
77794;PMS5003;66985;45.778;3.090;2023-02-19T00:47:50;11;11;
77794;PMS5003;66985;45.778;3.090;2023-02-19T00:50:15;9;9;
77794;PMS5003;66985;45.778;3.090;2023-02-19T00:52:41;11;11;
77794;PMS5003;66985;45.778;3.090;2023-02-19T00:55:06;11;11;
77794;PMS5003;66985;45.778;3.090;2023-02-19T00:57:31;11;11;
77794;PMS5003;66985;45.778;3.090;2023-02-19T00:59:57;11;8;
77794;PMS5003;66985;45.778;3.090;2023-02-19T01:02:22;13;13;
77794;PMS5003;66985;45.778;3.090;2023-02-19T01:04:48;12;10;
77794;PMS5003;66985;45.778;3.090;2023-02-19T01:07:14;14;13;
77794;PMS5003;66985;45.778;3.090;2023-02-19T01:09:39;12;11;
77794;PMS5003;66985;45.778;3.090;2023-02-19T01:12:05;15;11;
77794;PMS5003;66985;45.778;3.090;2023-02-19T01:14:30;12;12;
77794;PMS5003;66985;45.778;3.090;2023-02-19T01:16:56;11;9;
77794;PMS5003;66985;45.778;3.090;2023-02-19T01:19:21;9;9;
77794;PMS5003;66985;45.778;3.090;2023-02-19T01:21:46;14;14;
77794;PMS5003;66985;45.778;3.090;2023-02-19T01:24:12;10;9;
77794;PMS5003;66985;45.778;3.090;2023-02-19T01:26:37;10;9;
77794;PMS5003;66985;45.778;3.090;2023-02-19T01:29:03;12;11;
77794;PMS5003;66985;45.778;3.090;2023-02-19T01:31:28;14;13;
77794;PMS5003;66985;45.778;3.090;2023-02-19T01:33:54;10;8;
77794;PMS5003;66985;45.778;3.090;2023-02-19T01:36:18;10;10;
77794;PMS5003;66985;45.778;3.090;2023-02-19T01:38:44;10;10;
77794;PMS5003;66985;45.778;3.090;2023-02-19T01:41:10;10;9;
77794;PMS5003;66985;45.778;3.090;2023-02-19T01:43:52;12;9;
77794;PMS5003;66985;45.778;3.090;2023-02-19T01:46:00;15;11;
77794;PMS5003;66985;45.778;3.090;2023-02-19T01:48:26;11;11;
77794;PMS5003;66985;45.778;3.090;2023-02-19T01:50:52;11;11;
77794;PMS5003;66985;45.778;3.090;2023-02-19T01:53:17;10;10;
77794;PMS5003;66985;45.778;3.090;2023-02-19T01:55:42;14;11;
77794;PMS5003;66985;45.778;3.090;2023-02-19T01:58:08;11;11;
77794;PMS5003;66985;45.778;3.090;2023-02-19T02:00:33;9;9;
77794;PMS5003;66985;45.778;3.090;2023-02-19T02:02:58;11;10;
77794;PMS5003;66985;45.778;3.090;2023-02-19T02:05:27;13;11;
77794;PMS5003;66985;45.778;3.090;2023-02-19T02:07:49;11;11;
77794;PMS5003;66985;45.778;3.090;2023-02-19T02:10:15;7;7;
77794;PMS5003;66985;45.778;3.090;2023-02-19T02:12:40;10;10;
77794;PMS5003;66985;45.778;3.090;2023-02-19T02:15:06;10;9;
77794;PMS5003;66985;45.778;3.090;2023-02-19T02:17:33;10;10;
77794;PMS5003;66985;45.778;3.090;2023-02-19T02:20:01;9;9;
77794;PMS5003;66985;45.778;3.090;2023-02-19T02:22:22;10;9;
77794;PMS5003;66985;45.778;3.090;2023-02-19T02:24:51;10;10;
77794;PMS5003;66985;45.778;3.090;2023-02-19T02:27:17;8;8;
77794;PMS5003;66985;45.778;3.090;2023-02-19T02:29:46;11;9;
77794;PMS5003;66985;45.778;3.090;2023-02-19T02:32:04;9;9;
77794;PMS5003;66985;45.778;3.090;2023-02-19T02:34:32;8;7;
77794;PMS5003;66985;45.778;3.090;2023-02-19T02:36:55;10;10;
77794;PMS5003;66985;45.778;3.090;2023-02-19T02:39:21;9;9;
77794;PMS5003;66985;45.778;3.090;2023-02-19T02:41:48;8;8;
77794;PMS5003;66985;45.778;3.090;2023-02-19T02:44:11;10;9;
77794;PMS5003;66985;45.778;3.090;2023-02-19T02:46:37;5;5;
77794;PMS5003;66985;45.778;3.090;2023-02-19T02:49:03;12;11;
77794;PMS5003;66985;45.778;3.090;2023-02-19T02:51:28;8;8;
77794;PMS5003;66985;45.778;3.090;2023-02-19T02:53:54;10;9;
77794;PMS5003;66985;45.778;3.090;2023-02-19T02:56:19;9;9;
77794;PMS5003;66985;45.778;3.090;2023-02-19T02:58:44;10;7;
77794;PMS5003;66985;45.778;3.090;2023-02-19T03:01:10;8;8;
77794;PMS5003;66985;45.778;3.090;2023-02-19T03:03:35;7;7;
77794;PMS5003;66985;45.778;3.090;2023-02-19T03:06:02;8;8;
77794;PMS5003;66985;45.778;3.090;2023-02-19T03:08:27;9;8;
77794;PMS5003;66985;45.778;3.090;2023-02-19T03:10:53;7;7;
77794;PMS5003;66985;45.778;3.090;2023-02-19T03:13:18;8;7;
77794;PMS5003;66985;45.778;3.090;2023-02-19T03:15:44;8;8;
77794;PMS5003;66985;45.778;3.090;2023-02-19T03:18:09;8;8;
77794;PMS5003;66985;45.778;3.090;2023-02-19T03:20:34;6;6;
77794;PMS5003;66985;45.778;3.090;2023-02-19T03:22:59;9;9;
77794;PMS5003;66985;45.778;3.090;2023-02-19T03:25:25;7;7;
77794;PMS5003;66985;45.778;3.090;2023-02-19T03:27:50;6;6;
77794;PMS5003;66985;45.778;3.090;2023-02-19T03:30:17;8;8;
77794;PMS5003;66985;45.778;3.090;2023-02-19T03:32:43;10;8;
77794;PMS5003;66985;45.778;3.090;2023-02-19T03:35:08;9;9;
77794;PMS5003;66985;45.778;3.090;2023-02-19T03:37:34;8;8;
77794;PMS5003;66985;45.778;3.090;2023-02-19T03:39:58;7;7;
77794;PMS5003;66985;45.778;3.090;2023-02-19T03:42:28;7;7;
77794;PMS5003;66985;45.778;3.090;2023-02-19T03:44:52;7;7;
77794;PMS5003;66985;45.778;3.090;2023-02-19T03:45:10;7;7;
77794;PMS5003;66985;45.778;3.090;2023-02-19T03:47:31;9;7;
77794;PMS5003;66985;45.778;3.090;2023-02-19T03:49:57;7;7;
77794;PMS5003;66985;45.778;3.090;2023-02-19T03:52:22;11;8;
77794;PMS5003;66985;45.778;3.090;2023-02-19T03:54:49;6;6;
77794;PMS5003;66985;45.778;3.090;2023-02-19T03:57:15;8;8;
77794;PMS5003;66985;45.778;3.090;2023-02-19T03:59:39;9;6;
77794;PMS5003;66985;45.778;3.090;2023-02-19T04:02:04;6;6;
77794;PMS5003;66985;45.778;3.090;2023-02-19T04:04:30;8;7;
77794;PMS5003;66985;45.778;3.090;2023-02-19T04:06:55;7;7;
77794;PMS5003;66985;45.778;3.090;2023-02-19T04:09:21;7;7;
77794;PMS5003;66985;45.778;3.090;2023-02-19T04:11:46;6;6;
77794;PMS5003;66985;45.778;3.090;2023-02-19T04:14:13;6;6;
77794;PMS5003;66985;45.778;3.090;2023-02-19T04:16:37;7;5;
77794;PMS5003;66985;45.778;3.090;2023-02-19T04:19:03;6;6;
77794;PMS5003;66985;45.778;3.090;2023-02-19T04:21:28;10;10;
77794;PMS5003;66985;45.778;3.090;2023-02-19T04:23:53;10;10;
77794;PMS5003;66985;45.778;3.090;2023-02-19T04:26:19;5;5;
77794;PMS5003;66985;45.778;3.090;2023-02-19T04:28:45;5;5;
77794;PMS5003;66985;45.778;3.090;2023-02-19T04:31:10;6;6;
77794;PMS5003;66985;45.778;3.090;2023-02-19T04:33:35;6;6;
77794;PMS5003;66985;45.778;3.090;2023-02-19T04:36:01;6;6;
77794;PMS5003;66985;45.778;3.090;2023-02-19T04:38:26;5;5;
77794;PMS5003;66985;45.778;3.090;2023-02-19T04:40:52;6;6;
77794;PMS5003;66985;45.778;3.090;2023-02-19T04:43:17;7;7;
77794;PMS5003;66985;45.778;3.090;2023-02-19T04:45:43;6;6;
77794;PMS5003;66985;45.778;3.090;2023-02-19T04:48:09;9;7;
77794;PMS5003;66985;45.778;3.090;2023-02-19T04:50:36;7;5;
77794;PMS5003;66985;45.778;3.090;2023-02-19T04:52:59;8;8;
77794;PMS5003;66985;45.778;3.090;2023-02-19T04:55:25;7;7;
77794;PMS5003;66985;45.778;3.090;2023-02-19T04:57:50;6;6;
77794;PMS5003;66985;45.778;3.090;2023-02-19T05:00:16;7;5;
77794;PMS5003;66985;45.778;3.090;2023-02-19T05:02:41;6;6;
77794;PMS5003;66985;45.778;3.090;2023-02-19T05:05:07;7;6;
77794;PMS5003;66985;45.778;3.090;2023-02-19T05:07:32;5;5;
77794;PMS5003;66985;45.778;3.090;2023-02-19T05:09:58;8;8;
77794;PMS5003;66985;45.778;3.090;2023-02-19T05:12:24;7;7;
77794;PMS5003;66985;45.778;3.090;2023-02-19T05:14:49;6;6;
77794;PMS5003;66985;45.778;3.090;2023-02-19T05:17:14;8;8;
77794;PMS5003;66985;45.778;3.090;2023-02-19T05:19:40;6;6;
77794;PMS5003;66985;45.778;3.090;2023-02-19T05:22:06;5;5;
77794;PMS5003;66985;45.778;3.090;2023-02-19T05:24:31;6;6;
77794;PMS5003;66985;45.778;3.090;2023-02-19T05:26:57;6;6;
77794;PMS5003;66985;45.778;3.090;2023-02-19T05:29:22;5;4;
77794;PMS5003;66985;45.778;3.090;2023-02-19T05:31:48;7;7;
77794;PMS5003;66985;45.778;3.090;2023-02-19T05:34:13;6;6;
77794;PMS5003;66985;45.778;3.090;2023-02-19T05:36:39;6;6;
77794;PMS5003;66985;45.778;3.090;2023-02-19T05:39:04;9;8;
77794;PMS5003;66985;45.778;3.090;2023-02-19T05:41:30;6;6;
77794;PMS5003;66985;45.778;3.090;2023-02-19T05:43:55;5;5;
77794;PMS5003;66985;45.778;3.090;2023-02-19T05:46:21;6;6;
77794;PMS5003;66985;45.778;3.090;2023-02-19T05:48:46;6;6;
77794;PMS5003;66985;45.778;3.090;2023-02-19T05:51:12;5;5;
77794;PMS5003;66985;45.778;3.090;2023-02-19T05:53:37;8;6;
77794;PMS5003;66985;45.778;3.090;2023-02-19T05:56:03;5;5;
77794;PMS5003;66985;45.778;3.090;2023-02-19T05:58:28;6;5;
77794;PMS5003;66985;45.778;3.090;2023-02-19T06:00:54;6;6;
77794;PMS5003;66985;45.778;3.090;2023-02-19T06:03:19;7;7;
77794;PMS5003;66985;45.778;3.090;2023-02-19T06:05:45;3;3;
77794;PMS5003;66985;45.778;3.090;2023-02-19T06:08:11;4;4;
77794;PMS5003;66985;45.778;3.090;2023-02-19T06:10:37;4;4;
77794;PMS5003;66985;45.778;3.090;2023-02-19T06:13:01;4;4;
77794;PMS5003;66985;45.778;3.090;2023-02-19T06:15:27;7;6;
77794;PMS5003;66985;45.778;3.090;2023-02-19T06:17:52;4;4;
77794;PMS5003;66985;45.778;3.090;2023-02-19T06:20:18;6;6;
77794;PMS5003;66985;45.778;3.090;2023-02-19T06:22:43;4;4;
77794;PMS5003;66985;45.778;3.090;2023-02-19T06:25:09;7;7;
77794;PMS5003;66985;45.778;3.090;2023-02-19T06:27:35;6;6;
77794;PMS5003;66985;45.778;3.090;2023-02-19T06:30:00;7;7;
77794;PMS5003;66985;45.778;3.090;2023-02-19T06:32:25;5;5;
77794;PMS5003;66985;45.778;3.090;2023-02-19T06:34:51;6;5;
77794;PMS5003;66985;45.778;3.090;2023-02-19T06:37:16;4;4;
77794;PMS5003;66985;45.778;3.090;2023-02-19T06:39:42;5;5;
77794;PMS5003;66985;45.778;3.090;2023-02-19T06:42:07;4;4;
77794;PMS5003;66985;45.778;3.090;2023-02-19T06:44:33;6;6;
77794;PMS5003;66985;45.778;3.090;2023-02-19T06:46:58;7;7;
77794;PMS5003;66985;45.778;3.090;2023-02-19T06:49:24;6;6;
77794;PMS5003;66985;45.778;3.090;2023-02-19T06:51:49;5;5;
77794;PMS5003;66985;45.778;3.090;2023-02-19T06:54:15;5;5;
77794;PMS5003;66985;45.778;3.090;2023-02-19T06:56:40;6;6;
77794;PMS5003;66985;45.778;3.090;2023-02-19T06:59:06;4;4;
77794;PMS5003;66985;45.778;3.090;2023-02-19T07:01:32;5;5;
77794;PMS5003;66985;45.778;3.090;2023-02-19T07:03:57;6;6;
77794;PMS5003;66985;45.778;3.090;2023-02-19T07:06:23;5;5;
77794;PMS5003;66985;45.778;3.090;2023-02-19T07:08:48;6;5;
77794;PMS5003;66985;45.778;3.090;2023-02-19T07:11:13;5;5;
77794;PMS5003;66985;45.778;3.090;2023-02-19T07:13:39;4;4;
77794;PMS5003;66985;45.778;3.090;2023-02-19T07:16:05;6;6;
77794;PMS5003;66985;45.778;3.090;2023-02-19T07:18:30;4;3;
77794;PMS5003;66985;45.778;3.090;2023-02-19T07:21:00;6;6;
77794;PMS5003;66985;45.778;3.090;2023-02-19T07:23:21;6;5;
77794;PMS5003;66985;45.778;3.090;2023-02-19T07:25:46;5;5;
77794;PMS5003;66985;45.778;3.090;2023-02-19T07:28:12;6;6;
77794;PMS5003;66985;45.778;3.090;2023-02-19T07:30:37;7;7;
77794;PMS5003;66985;45.778;3.090;2023-02-19T07:33:03;6;6;
77794;PMS5003;66985;45.778;3.090;2023-02-19T07:35:28;6;5;
77794;PMS5003;66985;45.778;3.090;2023-02-19T07:37:54;7;5;
77794;PMS5003;66985;45.778;3.090;2023-02-19T07:40:19;6;6;
77794;PMS5003;66985;45.778;3.090;2023-02-19T07:42:45;8;6;
77794;PMS5003;66985;45.778;3.090;2023-02-19T07:45:10;6;6;
77794;PMS5003;66985;45.778;3.090;2023-02-19T07:47:35;6;4;
77794;PMS5003;66985;45.778;3.090;2023-02-19T07:50:01;7;7;
77794;PMS5003;66985;45.778;3.090;2023-02-19T07:52:26;7;7;
77794;PMS5003;66985;45.778;3.090;2023-02-19T07:54:52;7;7;
77794;PMS5003;66985;45.778;3.090;2023-02-19T07:57:17;9;8;
77794;PMS5003;66985;45.778;3.090;2023-02-19T07:59:43;18;18;
77794;PMS5003;66985;45.778;3.090;2023-02-19T08:02:10;20;19;
77794;PMS5003;66985;45.778;3.090;2023-02-19T08:04:33;23;20;
77794;PMS5003;66985;45.778;3.090;2023-02-19T08:06:59;19;19;
77794;PMS5003;66985;45.778;3.090;2023-02-19T08:09:24;20;19;
77794;PMS5003;66985;45.778;3.090;2023-02-19T08:11:49;25;22;
77794;PMS5003;66985;45.778;3.090;2023-02-19T08:14:15;20;20;
77794;PMS5003;66985;45.778;3.090;2023-02-19T08:16:46;19;19;
77794;PMS5003;66985;45.778;3.090;2023-02-19T08:19:05;21;20;
77794;PMS5003;66985;45.778;3.090;2023-02-19T08:21:31;22;20;
77794;PMS5003;66985;45.778;3.090;2023-02-19T08:23:56;19;19;
77794;PMS5003;66985;45.778;3.090;2023-02-19T08:26:22;18;18;
77794;PMS5003;66985;45.778;3.090;2023-02-19T08:28:47;19;17;
77794;PMS5003;66985;45.778;3.090;2023-02-19T08:31:13;18;17;
77794;PMS5003;66985;45.778;3.090;2023-02-19T08:33:39;19;17;
77794;PMS5003;66985;45.778;3.090;2023-02-19T08:36:05;18;17;
77794;PMS5003;66985;45.778;3.090;2023-02-19T08:38:29;15;15;
77794;PMS5003;66985;45.778;3.090;2023-02-19T08:40:55;15;14;
77794;PMS5003;66985;45.778;3.090;2023-02-19T08:43:21;8;8;
77794;PMS5003;66985;45.778;3.090;2023-02-19T08:45:46;9;9;
77794;PMS5003;66985;45.778;3.090;2023-02-19T08:48:12;10;10;
77794;PMS5003;66985;45.778;3.090;2023-02-19T08:50:38;8;8;
77794;PMS5003;66985;45.778;3.090;2023-02-19T08:53:04;8;8;
77794;PMS5003;66985;45.778;3.090;2023-02-19T08:55:28;8;8;
77794;PMS5003;66985;45.778;3.090;2023-02-19T08:57:54;8;8;
77794;PMS5003;66985;45.778;3.090;2023-02-19T09:00:19;11;11;
77794;PMS5003;66985;45.778;3.090;2023-02-19T09:02:45;8;7;
77794;PMS5003;66985;45.778;3.090;2023-02-19T09:05:11;9;9;
77794;PMS5003;66985;45.778;3.090;2023-02-19T09:07:36;9;9;
77794;PMS5003;66985;45.778;3.090;2023-02-19T09:10:02;7;7;
77794;PMS5003;66985;45.778;3.090;2023-02-19T09:12:27;10;10;
77794;PMS5003;66985;45.778;3.090;2023-02-19T09:14:52;7;7;
77794;PMS5003;66985;45.778;3.090;2023-02-19T09:17:18;7;7;
77794;PMS5003;66985;45.778;3.090;2023-02-19T09:19:43;7;7;
77794;PMS5003;66985;45.778;3.090;2023-02-19T09:22:08;8;8;
77794;PMS5003;66985;45.778;3.090;2023-02-19T09:24:34;6;6;
77794;PMS5003;66985;45.778;3.090;2023-02-19T09:26:59;6;6;
77794;PMS5003;66985;45.778;3.090;2023-02-19T09:29:26;7;7;
77794;PMS5003;66985;45.778;3.090;2023-02-19T09:31:52;11;9;
77794;PMS5003;66985;45.778;3.090;2023-02-19T09:34:16;8;8;
77794;PMS5003;66985;45.778;3.090;2023-02-19T09:36:41;9;9;
77794;PMS5003;66985;45.778;3.090;2023-02-19T09:39:07;8;8;
77794;PMS5003;66985;45.778;3.090;2023-02-19T09:41:33;7;7;
77794;PMS5003;66985;45.778;3.090;2023-02-19T09:43:58;7;7;
77794;PMS5003;66985;45.778;3.090;2023-02-19T09:46:25;8;8;
77794;PMS5003;66985;45.778;3.090;2023-02-19T09:48:48;10;7;
77794;PMS5003;66985;45.778;3.090;2023-02-19T09:51:14;6;6;
77794;PMS5003;66985;45.778;3.090;2023-02-19T09:53:40;10;10;
77794;PMS5003;66985;45.778;3.090;2023-02-19T09:56:05;8;7;
77794;PMS5003;66985;45.778;3.090;2023-02-19T09:58:31;8;8;
77794;PMS5003;66985;45.778;3.090;2023-02-19T10:00:56;7;7;
77794;PMS5003;66985;45.778;3.090;2023-02-19T10:03:22;7;6;
77794;PMS5003;66985;45.778;3.090;2023-02-19T10:05:47;7;7;
77794;PMS5003;66985;45.778;3.090;2023-02-19T10:08:14;7;7;
77794;PMS5003;66985;45.778;3.090;2023-02-19T10:10:38;8;8;
77794;PMS5003;66985;45.778;3.090;2023-02-19T10:13:13;10;8;
77794;PMS5003;66985;45.778;3.090;2023-02-19T10:15:29;10;9;
77794;PMS5003;66985;45.778;3.090;2023-02-19T10:17:54;8;6;
77794;PMS5003;66985;45.778;3.090;2023-02-19T10:20:20;7;6;
77794;PMS5003;66985;45.778;3.090;2023-02-19T10:22:45;6;6;
77794;PMS5003;66985;45.778;3.090;2023-02-19T10:25:11;8;8;
77794;PMS5003;66985;45.778;3.090;2023-02-19T10:27:36;9;9;
77794;PMS5003;66985;45.778;3.090;2023-02-19T10:30:01;8;7;
77794;PMS5003;66985;45.778;3.090;2023-02-19T10:32:27;8;6;
77794;PMS5003;66985;45.778;3.090;2023-02-19T10:35:08;6;6;
77794;PMS5003;66985;45.778;3.090;2023-02-19T10:37:18;8;7;
77794;PMS5003;66985;45.778;3.090;2023-02-19T10:39:43;9;8;
77794;PMS5003;66985;45.778;3.090;2023-02-19T10:42:17;10;7;
77794;PMS5003;66985;45.778;3.090;2023-02-19T10:44:34;7;6;
77794;PMS5003;66985;45.778;3.090;2023-02-19T10:47:00;7;7;
77794;PMS5003;66985;45.778;3.090;2023-02-19T10:49:27;8;7;
77794;PMS5003;66985;45.778;3.090;2023-02-19T10:51:51;9;9;
77794;PMS5003;66985;45.778;3.090;2023-02-19T10:54:16;7;7;
77794;PMS5003;66985;45.778;3.090;2023-02-19T10:56:42;9;6;
77794;PMS5003;66985;45.778;3.090;2023-02-19T10:59:18;8;7;
77794;PMS5003;66985;45.778;3.090;2023-02-19T11:01:32;8;8;
77794;PMS5003;66985;45.778;3.090;2023-02-19T11:04:13;8;7;
77794;PMS5003;66985;45.778;3.090;2023-02-19T11:06:24;5;4;
77794;PMS5003;66985;45.778;3.090;2023-02-19T11:08:53;9;8;
77794;PMS5003;66985;45.778;3.090;2023-02-19T11:11:23;6;6;
77794;PMS5003;66985;45.778;3.090;2023-02-19T11:13:40;5;5;
77794;PMS5003;66985;45.778;3.090;2023-02-19T11:16:06;7;7;
77794;PMS5003;66985;45.778;3.090;2023-02-19T11:18:31;9;9;
77794;PMS5003;66985;45.778;3.090;2023-02-19T11:20:58;7;6;
77794;PMS5003;66985;45.778;3.090;2023-02-19T11:23:23;8;4;
77794;PMS5003;66985;45.778;3.090;2023-02-19T11:25:47;5;5;
77794;PMS5003;66985;45.778;3.090;2023-02-19T11:28:19;7;7;
77794;PMS5003;66985;45.778;3.090;2023-02-19T11:30:38;7;5;
77794;PMS5003;66985;45.778;3.090;2023-02-19T11:33:24;7;5;
77794;PMS5003;66985;45.778;3.090;2023-02-19T11:35:29;6;6;
77794;PMS5003;66985;45.778;3.090;2023-02-19T11:37:55;8;8;
77794;PMS5003;66985;45.778;3.090;2023-02-19T11:40:20;8;8;
77794;PMS5003;66985;45.778;3.090;2023-02-19T11:42:45;9;8;
77794;PMS5003;66985;45.778;3.090;2023-02-19T11:45:13;6;6;
77794;PMS5003;66985;45.778;3.090;2023-02-19T11:47:56;8;7;
77794;PMS5003;66985;45.778;3.090;2023-02-19T11:50:02;6;6;
77794;PMS5003;66985;45.778;3.090;2023-02-19T11:52:28;5;5;
77794;PMS5003;66985;45.778;3.090;2023-02-19T11:54:53;7;6;
77794;PMS5003;66985;45.778;3.090;2023-02-19T11:57:23;6;6;
77794;PMS5003;66985;45.778;3.090;2023-02-19T11:59:44;7;7;
77794;PMS5003;66985;45.778;3.090;2023-02-19T12:02:29;9;8;
77794;PMS5003;66985;45.778;3.090;2023-02-19T12:05:16;6;6;
77794;PMS5003;66985;45.778;3.090;2023-02-19T12:07:02;5;5;
77794;PMS5003;66985;45.778;3.090;2023-02-19T12:09:29;7;7;
77794;PMS5003;66985;45.778;3.090;2023-02-19T12:11:53;7;6;
77794;PMS5003;66985;45.778;3.090;2023-02-19T12:14:23;8;8;
77794;PMS5003;66985;45.778;3.090;2023-02-19T12:16:42;10;10;
77794;PMS5003;66985;45.778;3.090;2023-02-19T12:19:26;7;7;
77794;PMS5003;66985;45.778;3.090;2023-02-19T12:21:37;5;5;
77794;PMS5003;66985;45.778;3.090;2023-02-19T12:24:02;8;8;
77794;PMS5003;66985;45.778;3.090;2023-02-19T12:26:24;6;6;
77794;PMS5003;66985;45.778;3.090;2023-02-19T12:28:56;7;7;
77794;PMS5003;66985;45.778;3.090;2023-02-19T12:31:50;11;9;
77794;PMS5003;66985;45.778;3.090;2023-02-19T12:34:15;7;7;
77794;PMS5003;66985;45.778;3.090;2023-02-19T12:36:07;10;8;
77794;PMS5003;66985;45.778;3.090;2023-02-19T12:38:31;8;8;
77794;PMS5003;66985;45.778;3.090;2023-02-19T12:41:00;8;8;
77794;PMS5003;66985;45.778;3.090;2023-02-19T12:43:22;8;8;
77794;PMS5003;66985;45.778;3.090;2023-02-19T12:45:48;7;7;
77794;PMS5003;66985;45.778;3.090;2023-02-19T12:48:15;10;9;
77794;PMS5003;66985;45.778;3.090;2023-02-19T12:50:38;8;8;
77794;PMS5003;66985;45.778;3.090;2023-02-19T12:53:04;8;8;
77794;PMS5003;66985;45.778;3.090;2023-02-19T12:55:29;7;7;
77794;PMS5003;66985;45.778;3.090;2023-02-19T12:57:54;11;9;
77794;PMS5003;66985;45.778;3.090;2023-02-19T13:00:24;7;7;
77794;PMS5003;66985;45.778;3.090;2023-02-19T13:02:47;7;7;
77794;PMS5003;66985;45.778;3.090;2023-02-19T13:05:12;7;7;
77794;PMS5003;66985;45.778;3.090;2023-02-19T13:07:37;8;8;
77794;PMS5003;66985;45.778;3.090;2023-02-19T13:10:04;7;7;
77794;PMS5003;66985;45.778;3.090;2023-02-19T13:12:28;10;9;
77794;PMS5003;66985;45.778;3.090;2023-02-19T13:14:54;9;9;
77794;PMS5003;66985;45.778;3.090;2023-02-19T13:17:21;8;7;
77794;PMS5003;66985;45.778;3.090;2023-02-19T13:19:43;7;7;
77794;PMS5003;66985;45.778;3.090;2023-02-19T13:22:12;7;7;
77794;PMS5003;66985;45.778;3.090;2023-02-19T13:24:35;7;6;
77794;PMS5003;66985;45.778;3.090;2023-02-19T13:27:03;17;15;
77794;PMS5003;66985;45.778;3.090;2023-02-19T13:29:29;8;8;
77794;PMS5003;66985;45.778;3.090;2023-02-19T13:31:56;8;8;
77794;PMS5003;66985;45.778;3.090;2023-02-19T13:34:19;11;9;
77794;PMS5003;66985;45.778;3.090;2023-02-19T13:36:42;5;5;
77794;PMS5003;66985;45.778;3.090;2023-02-19T13:39:11;7;7;
77794;PMS5003;66985;45.778;3.090;2023-02-19T13:41:34;7;7;
77794;PMS5003;66985;45.778;3.090;2023-02-19T13:43:59;9;9;
77794;PMS5003;66985;45.778;3.090;2023-02-19T13:46:24;7;7;
77794;PMS5003;66985;45.778;3.090;2023-02-19T13:49:22;7;6;
77794;PMS5003;66985;45.778;3.090;2023-02-19T13:51:47;12;9;
77794;PMS5003;66985;45.778;3.090;2023-02-19T13:53:48;7;7;
77794;PMS5003;66985;45.778;3.090;2023-02-19T13:56:23;7;7;
77794;PMS5003;66985;45.778;3.090;2023-02-19T13:58:36;7;7;
77794;PMS5003;66985;45.778;3.090;2023-02-19T14:00:57;7;7;
77794;PMS5003;66985;45.778;3.090;2023-02-19T14:03:26;6;6;
77794;PMS5003;66985;45.778;3.090;2023-02-19T14:05:56;6;6;
77794;PMS5003;66985;45.778;3.090;2023-02-19T14:08:13;7;7;
77794;PMS5003;66985;45.778;3.090;2023-02-19T14:10:49;6;6;
77794;PMS5003;66985;45.778;3.090;2023-02-19T14:13:06;6;6;
77794;PMS5003;66985;45.778;3.090;2023-02-19T14:15:36;6;5;
77794;PMS5003;66985;45.778;3.090;2023-02-19T14:17:55;7;7;
77794;PMS5003;66985;45.778;3.090;2023-02-19T14:20:39;4;4;
77794;PMS5003;66985;45.778;3.090;2023-02-19T14:23:08;5;5;
77794;PMS5003;66985;45.778;3.090;2023-02-19T14:25:29;7;7;
77794;PMS5003;66985;45.778;3.090;2023-02-19T14:27:54;6;6;
77794;PMS5003;66985;45.778;3.090;2023-02-19T14:30:19;5;5;
77794;PMS5003;66985;45.778;3.090;2023-02-19T14:32:44;5;5;
77794;PMS5003;66985;45.778;3.090;2023-02-19T14:35:16;6;6;
77794;PMS5003;66985;45.778;3.090;2023-02-19T14:37:35;4;4;
77794;PMS5003;66985;45.778;3.090;2023-02-19T14:40:01;6;6;
77794;PMS5003;66985;45.778;3.090;2023-02-19T14:42:26;6;6;
77794;PMS5003;66985;45.778;3.090;2023-02-19T14:44:52;6;6;
77794;PMS5003;66985;45.778;3.090;2023-02-19T14:47:17;6;6;
77794;PMS5003;66985;45.778;3.090;2023-02-19T14:49:43;4;4;
77794;PMS5003;66985;45.778;3.090;2023-02-19T14:52:10;5;5;
77794;PMS5003;66985;45.778;3.090;2023-02-19T14:54:36;6;5;
77794;PMS5003;66985;45.778;3.090;2023-02-19T14:56:59;3;3;
77794;PMS5003;66985;45.778;3.090;2023-02-19T14:59:25;4;4;
77794;PMS5003;66985;45.778;3.090;2023-02-19T15:01:54;5;5;
77794;PMS5003;66985;45.778;3.090;2023-02-19T15:04:20;6;6;
77794;PMS5003;66985;45.778;3.090;2023-02-19T15:06:41;5;5;
77794;PMS5003;66985;45.778;3.090;2023-02-19T15:09:07;5;5;
77794;PMS5003;66985;45.778;3.090;2023-02-19T15:11:32;5;5;
77794;PMS5003;66985;45.778;3.090;2023-02-19T15:13:58;6;6;
77794;PMS5003;66985;45.778;3.090;2023-02-19T15:16:23;5;5;
77794;PMS5003;66985;45.778;3.090;2023-02-19T15:18:49;6;6;
77794;PMS5003;66985;45.778;3.090;2023-02-19T15:21:18;4;4;
77794;PMS5003;66985;45.778;3.090;2023-02-19T15:23:40;5;5;
77794;PMS5003;66985;45.778;3.090;2023-02-19T15:26:11;5;5;
77794;PMS5003;66985;45.778;3.090;2023-02-19T15:28:31;3;3;
77794;PMS5003;66985;45.778;3.090;2023-02-19T15:31:13;3;3;
77794;PMS5003;66985;45.778;3.090;2023-02-19T15:33:22;3;3;
77794;PMS5003;66985;45.778;3.090;2023-02-19T15:35:47;7;5;
77794;PMS5003;66985;45.778;3.090;2023-02-19T15:38:13;6;6;
77794;PMS5003;66985;45.778;3.090;2023-02-19T15:40:38;5;5;
77794;PMS5003;66985;45.778;3.090;2023-02-19T15:43:04;4;4;
77794;PMS5003;66985;45.778;3.090;2023-02-19T15:45:30;7;7;
77794;PMS5003;66985;45.778;3.090;2023-02-19T15:47:55;4;4;
77794;PMS5003;66985;45.778;3.090;2023-02-19T15:50:21;7;7;
77794;PMS5003;66985;45.778;3.090;2023-02-19T15:52:47;6;6;
77794;PMS5003;66985;45.778;3.090;2023-02-19T15:55:15;12;10;
77794;PMS5003;66985;45.778;3.090;2023-02-19T15:57:37;10;10;
77794;PMS5003;66985;45.778;3.090;2023-02-19T16:00:04;13;13;
77794;PMS5003;66985;45.778;3.090;2023-02-19T16:02:28;13;13;
77794;PMS5003;66985;45.778;3.090;2023-02-19T16:04:53;17;17;
77794;PMS5003;66985;45.778;3.090;2023-02-19T16:07:22;11;11;
77794;PMS5003;66985;45.778;3.090;2023-02-19T16:09:44;16;15;
77794;PMS5003;66985;45.778;3.090;2023-02-19T16:12:17;16;15;
77794;PMS5003;66985;45.778;3.090;2023-02-19T16:14:35;17;17;
77794;PMS5003;66985;45.778;3.090;2023-02-19T16:17:04;14;14;
77794;PMS5003;66985;45.778;3.090;2023-02-19T16:19:26;14;14;
77794;PMS5003;66985;45.778;3.090;2023-02-19T16:21:51;19;16;
77794;PMS5003;66985;45.778;3.090;2023-02-19T16:24:18;16;16;
77794;PMS5003;66985;45.778;3.090;2023-02-19T16:26:43;17;16;
77794;PMS5003;66985;45.778;3.090;2023-02-19T16:29:12;17;17;